Terminal Aerodrome Forecast
Issued by NWS Wilmington, OH

Current Version | Previous Version | Graphics & Text | Print | Product List | Glossary On
Versions: 1 2 3 4 5 6 7 8 9 10 11 12 13 14 15 16 17 18 19 20 21 22 23
779
FTUS41 KILN 230114 AAA
TAFILN
TAF AMD
KILN 230114Z 2301/2324 19005KT P6SM BKN035
     FM230900 20005KT 3SM BR VCSH OVC018
     FM231200 21005KT 2SM BR OVC010
     FM231600 22006KT P6SM OVC015
     FM232200 16006KT P6SM BKN035=

USA.gov is the U.S. government's official web portal to all federal, state and local government web resources and services.